createdAt,value
2023-03-06T00:16:08.936Z,76.86
2023-03-06T00:23:49.496Z,76.92
2023-03-06T00:31:29.244Z,76.79
2023-03-06T00:35:16.057Z,76.77
2023-03-06T00:43:13.523Z,77.17
2023-03-06T00:46:51.445Z,77.48
2023-03-06T00:50:38.244Z,77.47
2023-03-06T00:54:22.590Z,78.01
2023-03-06T01:02:16.701Z,77.81
2023-03-06T01:06:04.326Z,77.61
2023-03-06T01:09:47.414Z,77.38
2023-03-06T01:13:35.526Z,77.29
2023-03-06T01:17:11.541Z,77.39
2023-03-06T01:21:17.832Z,76.80
2023-03-06T01:24:41.561Z,76.53
2023-03-06T01:28:17.209Z,76.55
2023-03-06T01:32:01.552Z,76.43
2023-03-06T01:35:48.665Z,76.69
2023-03-06T01:40:08.197Z,76.36
2023-03-06T01:47:38.701Z,76.28
2023-03-06T01:51:08.362Z,76.44
2023-03-06T01:58:38.414Z,76.52
2023-03-06T02:02:17.329Z,76.74
2023-03-06T02:13:56.412Z,76.41
2023-03-06T02:17:37.416Z,76.66
2023-03-06T02:21:29.748Z,76.27
2023-03-06T02:25:07.746Z,76.15
2023-03-06T02:37:05.260Z,76.56
2023-03-06T02:48:56.657Z,76.19
2023-03-06T02:52:02.156Z,76.34
2023-03-06T02:55:05.736Z,76.12
2023-03-06T02:58:14.050Z,76.11
2023-03-06T03:01:19.691Z,76.50
2023-03-06T03:04:42.285Z,76.46
2023-03-06T03:07:48.786Z,76.44
2023-03-06T03:10:52.890Z,76.54
2023-03-06T03:13:55.939Z,76.60
2023-03-06T03:17:00.553Z,76.66
2023-03-06T03:20:11.277Z,76.58
2023-03-06T03:23:16.243Z,76.60
2023-03-06T03:26:27.158Z,76.62
2023-03-06T03:29:40.784Z,76.72
2023-03-06T03:32:43.441Z,76.66
2023-03-06T03:35:56.958Z,76.78
2023-03-06T03:39:00.278Z,76.79
2023-03-06T03:42:03.655Z,76.98
2023-03-06T03:45:07.103Z,76.94
2023-03-06T03:48:13.215Z,76.67
2023-03-06T03:51:16.732Z,76.78
2023-03-06T03:54:20.569Z,76.72
2023-03-06T03:57:23.959Z,77.15
2023-03-06T04:00:28.230Z,77.11
2023-03-06T04:03:37.228Z,77.42
2023-03-06T04:07:02.619Z,77.73
2023-03-06T04:10:43.212Z,77.48
2023-03-06T04:14:08.740Z,77.34
2023-03-06T04:17:11.662Z,77.46
2023-03-06T04:20:15.151Z,77.13
2023-03-06T04:23:19.516Z,77.30
2023-03-06T04:26:24.163Z,77.42
2023-03-06T04:29:28.938Z,77.13
2023-03-06T04:32:32.827Z,77.23
2023-03-06T04:35:37.860Z,77.07
2023-03-06T04:39:14.377Z,76.71
2023-03-06T04:42:20.025Z,76.95
2023-03-06T04:45:26.148Z,76.55
2023-03-06T04:48:31.346Z,76.57
2023-03-06T04:51:43.192Z,76.65
2023-03-06T04:54:48.882Z,76.59
2023-03-06T04:57:53.803Z,76.82
2023-03-06T05:00:57.177Z,76.70
2023-03-06T05:04:00.772Z,76.64
2023-03-06T05:07:04.482Z,76.64
2023-03-06T05:10:20.404Z,76.52
2023-03-06T05:13:29.031Z,76.47
2023-03-06T05:16:32.877Z,76.64
2023-03-06T05:19:37.006Z,76.80
2023-03-06T05:22:41.145Z,76.96
2023-03-06T05:25:44.600Z,77.04
2023-03-06T05:28:52.024Z,77.08
2023-03-06T05:31:56.766Z,78.15
2023-03-06T05:35:05.060Z,77.91
2023-03-06T05:38:10.931Z,78.97
2023-03-06T05:41:17.369Z,79.13
2023-03-06T05:44:20.989Z,79.10
2023-03-06T05:47:23.915Z,79.39
2023-03-06T05:50:27.379Z,79.56
2023-03-06T05:53:31.506Z,78.52
2023-03-06T05:56:36.086Z,79.16
2023-03-06T05:59:43.236Z,79.40
2023-03-06T06:02:46.975Z,79.19
2023-03-06T06:05:50.999Z,79.73
2023-03-06T06:08:55.393Z,79.55
2023-03-06T06:12:03.881Z,79.29
2023-03-06T06:15:08.831Z,79.36
2023-03-06T06:18:12.405Z,79.53
2023-03-06T06:21:16.280Z,79.09
2023-03-06T06:24:24.896Z,79.01
2023-03-06T06:27:27.570Z,77.42
2023-03-06T06:30:34.123Z,77.42
2023-03-06T06:33:36.747Z,77.64
2023-03-06T06:37:15.590Z,77.74
2023-03-06T06:40:38.827Z,77.09
2023-03-06T06:43:41.449Z,76.65
2023-03-06T06:50:13.285Z,75.67
2023-03-06T06:53:16.325Z,74.86
2023-03-06T06:56:23.470Z,74.76
2023-03-06T06:59:53.398Z,74.10
2023-03-06T07:02:58.990Z,73.56
2023-03-06T07:06:02.926Z,73.21
2023-03-06T07:09:05.838Z,73.32
2023-03-06T07:12:09.237Z,74.07
2023-03-06T07:15:14.840Z,74.37
2023-03-06T07:18:17.966Z,73.75
2023-03-06T07:21:21.153Z,73.26
2023-03-06T07:24:25.088Z,72.81
2023-03-06T07:27:28.462Z,73.09
2023-03-06T07:30:34.083Z,72.67
2023-03-06T07:33:56.589Z,71.74
2023-03-06T07:37:01.762Z,71.47
2023-03-06T07:40:17.256Z,69.83
2023-03-06T07:43:22.128Z,71.71
2023-03-06T07:46:25.710Z,72.41
2023-03-06T07:49:29.289Z,73.30
2023-03-06T07:52:36.681Z,73.41
2023-03-06T07:55:41.739Z,72.75
2023-03-06T07:59:04.418Z,71.49
2023-03-06T08:02:08.270Z,71.75
2023-03-06T08:05:17.954Z,70.97
2023-03-06T08:08:24.538Z,72.20
2023-03-06T08:11:32.248Z,70.36
2023-03-06T08:14:35.753Z,68.81
2023-03-06T08:17:40.268Z,69.54
2023-03-06T08:20:43.367Z,70.07
2023-03-06T08:24:17.170Z,69.77
2023-03-06T08:27:40.171Z,70.95
2023-03-06T08:30:43.928Z,69.75
2023-03-06T08:33:51.090Z,68.75
2023-03-06T08:36:54.487Z,68.44
2023-03-06T08:40:03.565Z,67.94
2023-03-06T08:43:19.853Z,69.02
2023-03-06T08:46:42.495Z,66.87
2023-03-06T08:49:46.770Z,66.39
2023-03-06T08:52:50.418Z,64.09
2023-03-06T08:55:56.352Z,65.33
2023-03-06T08:59:33.193Z,63.31
2023-03-06T09:02:37.558Z,62.17
2023-03-06T09:06:00.531Z,60.73
2023-03-06T09:09:06.057Z,61.67
2023-03-06T09:12:50.707Z,59.81
2023-03-06T09:16:21.667Z,60.40
2023-03-06T09:20:25.300Z,59.90
2023-03-06T09:24:14.999Z,57.79
2023-03-06T09:27:22.982Z,56.68
2023-03-06T09:31:13.484Z,56.72
2023-03-06T09:34:38.480Z,55.96
2023-03-06T09:37:49.149Z,54.98
2023-03-06T09:41:25.274Z,55.13
2023-03-06T09:44:35.452Z,56.36
2023-03-06T09:47:46.883Z,53.93
2023-03-06T09:51:07.848Z,55.16
2023-03-06T09:54:37.592Z,56.11
2023-03-06T09:57:51.200Z,53.84
2023-03-06T10:01:05.012Z,54.55
2023-03-06T10:04:28.456Z,54.48
2023-03-06T10:07:45.763Z,56.17
2023-03-06T10:10:59.655Z,54.66
2023-03-06T10:14:28.874Z,55.22
2023-03-06T10:17:41.405Z,54.25
2023-03-06T10:21:19.495Z,53.78
2023-03-06T10:24:45.829Z,54.26
2023-03-06T10:27:58.231Z,54.29
2023-03-06T10:34:52.927Z,56.37
2023-03-06T10:38:04.648Z,56.41
2023-03-06T10:41:18.936Z,56.70
2023-03-06T10:44:42.164Z,57.16
2023-03-06T10:47:47.008Z,59.24
2023-03-06T10:51:20.259Z,57.32
2023-03-06T10:54:53.307Z,57.28
2023-03-06T11:06:37.295Z,57.32
2023-03-06T11:10:23.543Z,56.03
2023-03-06T11:22:22.254Z,53.03
2023-03-06T11:26:17.986Z,53.39
2023-03-06T11:29:38.923Z,52.98
2023-03-06T11:33:26.889Z,52.79
2023-03-06T11:41:26.165Z,51.39
2023-03-06T11:45:15.383Z,52.51
2023-03-06T11:49:13.362Z,51.69
2023-03-06T11:53:03.417Z,52.87
2023-03-06T11:57:43.512Z,52.13
2023-03-06T12:01:13.120Z,52.38
2023-03-06T12:04:59.668Z,53.02
2023-03-06T12:08:46.610Z,52.96
2023-03-06T12:12:32.731Z,54.02
2023-03-06T12:16:18.255Z,53.93
2023-03-06T12:20:18.138Z,53.31
2023-03-06T12:28:18.639Z,50.49
2023-03-06T12:31:55.176Z,49.24
2023-03-06T12:39:51.178Z,48.06
2023-03-06T12:43:48.306Z,47.93
2023-03-06T12:46:59.722Z,49.41
2023-03-06T12:50:13.667Z,49.37
2023-03-06T12:53:49.483Z,49.13
2023-03-06T12:56:57.128Z,49.70
2023-03-06T13:00:02.203Z,49.84
2023-03-06T13:03:45.136Z,50.02
2023-03-06T13:07:07.204Z,49.98
2023-03-06T13:10:28.162Z,50.38
2023-03-06T13:14:37.487Z,50.52
2023-03-06T13:17:48.799Z,49.47
2023-03-06T13:25:33.682Z,49.84
2023-03-06T13:29:38.425Z,49.83
2023-03-06T13:33:22.501Z,51.23
2023-03-06T13:45:08.383Z,52.05
2023-03-06T13:48:45.550Z,51.60
2023-03-06T13:52:30.030Z,52.05
2023-03-06T13:56:36.615Z,52.11
2023-03-06T14:00:19.337Z,52.91
2023-03-06T14:03:50.259Z,52.24
2023-03-06T14:07:30.940Z,52.95
2023-03-06T14:11:19.969Z,53.56
2023-03-06T14:14:42.170Z,54.04
2023-03-06T14:18:31.584Z,55.52
2023-03-06T14:21:44.601Z,59.28
2023-03-06T14:25:02.999Z,62.45
2023-03-06T14:28:27.689Z,65.25
2023-03-06T14:32:11.551Z,67.23
2023-03-06T14:35:35.544Z,67.77
2023-03-06T14:39:02.686Z,67.87
2023-03-06T14:42:29.801Z,69.25
2023-03-06T14:45:34.289Z,69.82
2023-03-06T14:48:49.293Z,70.46
2023-03-06T14:52:33.059Z,70.46
2023-03-06T14:56:03.525Z,70.82
2023-03-06T14:59:39.502Z,70.86
2023-03-06T15:03:28.235Z,71.41
2023-03-06T15:11:04.973Z,73.16
2023-03-06T15:15:40.678Z,73.81
2023-03-06T15:19:21.085Z,73.25
2023-03-06T15:22:59.822Z,74.33
2023-03-06T15:26:19.167Z,74.42
2023-03-06T15:30:30.872Z,74.74
2023-03-06T15:34:24.907Z,74.72
2023-03-06T15:37:58.378Z,74.55
2023-03-06T15:41:43.551Z,74.64
2023-03-06T15:50:04.452Z,75.58
2023-03-06T15:53:37.035Z,75.59
2023-03-06T15:57:55.459Z,76.23
2023-03-06T16:01:38.626Z,76.34
2023-03-06T16:05:18.034Z,76.79
2023-03-06T16:08:46.896Z,76.51
2023-03-06T16:12:31.877Z,77.10
2023-03-06T16:16:32.036Z,77.11
2023-03-06T16:20:22.744Z,77.64
2023-03-06T16:23:49.819Z,77.89
2023-03-06T16:27:28.554Z,77.73
2023-03-06T16:30:36.319Z,78.34
2023-03-06T16:34:05.817Z,79.20
2023-03-06T16:37:27.002Z,79.56
2023-03-06T16:41:05.131Z,80.33
2023-03-06T16:45:07.979Z,80.48
2023-03-06T16:48:32.766Z,80.86
2023-03-06T16:51:56.339Z,81.12
2023-03-06T16:54:58.894Z,80.99
2023-03-06T16:58:11.398Z,80.97
2023-03-06T17:01:45.876Z,81.42
2023-03-06T17:09:25.846Z,82.19
2023-03-06T17:13:11.373Z,81.80
2023-03-06T17:16:46.622Z,81.88
2023-03-06T17:20:23.913Z,82.22
2023-03-06T17:23:39.696Z,82.67
2023-03-06T17:27:02.955Z,82.49
2023-03-06T17:30:30.449Z,83.40
2023-03-06T17:33:33.601Z,84.87
2023-03-06T17:36:57.102Z,85.26
2023-03-06T17:40:09.978Z,85.56
2023-03-06T17:43:57.580Z,85.65
2023-03-06T17:47:35.883Z,85.19
2023-03-06T17:51:11.529Z,85.13
2023-03-06T17:54:16.595Z,85.19
2023-03-06T17:57:19.607Z,84.95
2023-03-06T18:00:23.867Z,85.20
2023-03-06T18:03:28.026Z,84.82
2023-03-06T18:06:51.088Z,84.82
2023-03-06T18:09:54.892Z,85.00
2023-03-06T18:13:02.084Z,84.72
2023-03-06T18:16:06.580Z,84.78
2023-03-06T18:19:11.073Z,84.94
2023-03-06T18:22:13.945Z,85.07
2023-03-06T18:25:17.661Z,84.84
2023-03-06T18:28:50.496Z,84.80
2023-03-06T18:32:26.053Z,84.76
2023-03-06T18:36:24.629Z,85.92
2023-03-06T18:44:01.190Z,89.75
2023-03-06T18:47:10.624Z,89.13
2023-03-06T18:50:17.556Z,89.34
2023-03-06T18:53:21.642Z,89.61
2023-03-06T18:56:28.035Z,88.72
2023-03-06T18:59:33.926Z,88.58
2023-03-06T19:02:37.339Z,87.50
2023-03-06T19:05:43.094Z,87.29
2023-03-06T19:08:47.543Z,87.21
2023-03-06T19:11:52.127Z,86.62
2023-03-06T19:14:59.090Z,86.48
2023-03-06T19:18:03.235Z,86.52
2023-03-06T19:21:21.707Z,87.22
2023-03-06T19:24:51.302Z,89.71
2023-03-06T19:28:34.635Z,92.17
2023-03-06T19:32:06.791Z,93.13
2023-03-06T19:35:24.980Z,93.92
2023-03-06T19:39:05.981Z,95.25
2023-03-06T19:42:38.225Z,96.49
2023-03-06T19:46:05.474Z,97.51
2023-03-06T19:49:35.813Z,100.00
2023-03-06T19:52:58.087Z,100.00
2023-03-06T19:56:39.269Z,100.00
2023-03-06T20:00:00.022Z,100.00
2023-03-06T20:03:41.377Z,100.00
2023-03-06T20:06:56.462Z,100.00
2023-03-06T20:14:47.954Z,100.00
2023-03-06T20:17:51.588Z,100.00
2023-03-06T20:21:15.335Z,100.00
2023-03-06T20:24:27.210Z,100.00
2023-03-06T20:27:31.362Z,100.00
2023-03-06T20:30:55.293Z,100.00
2023-03-06T20:34:21.211Z,100.00
2023-03-06T20:37:45.050Z,100.00
2023-03-06T20:40:57.860Z,100.00
2023-03-06T20:44:04.873Z,100.00
2023-03-06T20:48:00.867Z,100.00
2023-03-06T20:51:29.095Z,100.00
2023-03-06T20:54:54.217Z,100.00
2023-03-06T20:58:27.675Z,100.00
2023-03-06T21:02:11.513Z,100.00
2023-03-06T21:05:35.259Z,100.00
2023-03-06T21:08:41.349Z,100.00
2023-03-06T21:12:18.476Z,100.00
2023-03-06T21:16:38.025Z,100.00
2023-03-06T21:20:25.338Z,100.00
2023-03-06T21:23:53.270Z,100.00
2023-03-06T21:27:23.865Z,100.00
2023-03-06T21:30:34.689Z,100.00
2023-03-06T21:33:46.499Z,100.00
2023-03-06T21:37:05.363Z,100.00
2023-03-06T21:41:20.433Z,100.00
2023-03-06T21:45:00.120Z,100.00
2023-03-06T21:48:24.498Z,100.00
2023-03-06T21:51:41.099Z,100.00
2023-03-06T21:54:44.246Z,100.00
2023-03-06T21:58:04.580Z,100.00
2023-03-06T22:01:31.277Z,100.00
2023-03-06T22:05:07.825Z,100.00
2023-03-06T22:08:31.820Z,100.00
2023-03-06T22:12:04.222Z,100.00
2023-03-06T22:15:09.980Z,100.00
2023-03-06T22:18:31.158Z,100.00
2023-03-06T22:22:11.374Z,100.00
2023-03-06T22:25:40.023Z,100.00
2023-03-06T22:29:05.165Z,100.00
2023-03-06T22:32:35.582Z,100.00
2023-03-06T22:36:16.166Z,100.00
2023-03-06T22:40:02.186Z,100.00
2023-03-06T22:43:37.893Z,100.00
2023-03-06T22:46:44.259Z,100.00
2023-03-06T22:53:53.988Z,100.00
2023-03-06T22:57:24.305Z,100.00
2023-03-06T23:00:42.706Z,100.00
2023-03-06T23:04:31.984Z,100.00
2023-03-06T23:07:34.976Z,100.00
2023-03-06T23:11:16.548Z,100.00
2023-03-06T23:15:03.269Z,100.00
2023-03-06T23:23:00.246Z,100.00
2023-03-06T23:26:26.243Z,100.00
2023-03-06T23:29:50.226Z,100.00
2023-03-06T23:33:27.499Z,100.00
2023-03-06T23:36:56.642Z,100.00
2023-03-06T23:45:18.214Z,100.00
2023-03-06T23:48:30.334Z,100.00
2023-03-06T23:52:33.526Z,100.00
